Погода Дворацкена 2 недели

Варминско-Мазурское воеводство, Польша

19 мая-01 июня
  • 19мая
    Сегодня
    +10°
    +24°
    Ясно и безоблачно
    ВремяПогодаТемператураВлажностьДавлениеВетер, м/сВероятность осадков
    02:00Ясно и безоблачно+10°C77 %748 мм2.0 м/с2 %
    05:00Ясно и безоблачно+10°C82 %748 мм1.6 м/с2 %
    08:00Ясно и безоблачно+18°C58 %748 мм1.5 м/с2 %
    11:00Практически безоблачно+22°C33 %748 мм4.7 м/с2 %
    14:00Ясно и безоблачно+23°C31 %747 мм5.2 м/с2 %
    17:00Практически безоблачно+23°C37 %746 мм4.3 м/с2 %
    20:00Облачно с прояснениями+19°C64 %747 мм2.5 м/с10 %
    23:00Ясно и безоблачно+12°C84 %746 мм1.9 м/с4 %
  • 20мая
    Понедельник
    +11°
    +22°
    Облачно с прояснениями
    ВремяПогодаТемператураВлажностьДавлениеВетер, м/сВероятность осадков
    02:00Небольшая облачность+10°C76 %746 мм2.0 м/с2 %
    05:00Облачно с прояснениями+11°C71 %746 мм2.2 м/с4 %
    08:00Облачно с прояснениями+17°C61 %747 мм1.5 м/с11 %
    11:00Облачно с прояснениями+21°C52 %748 мм1.5 м/с27 %
    14:00Облачно с прояснениями+22°C49 %748 мм2.2 м/с37 %
    17:00Небольшая облачность+22°C45 %747 мм2.9 м/с38 %
    20:00Облачно с прояснениями+20°C63 %748 мм3.7 м/с21 %
    23:00Небольшая облачность+15°C73 %748 мм2.6 м/с9 %
  • 21мая
    Вторник
    +12°
    +24°
    Небольшая облачность
    ВремяПогодаТемператураВлажностьДавлениеВетер, м/сВероятность осадков
    02:00Небольшая облачность+13°C84 %748 мм2.5 м/с2 %
    05:00Ясно и безоблачно+12°C91 %748 мм2.4 м/с2 %
    08:00Ясно и безоблачно+19°C72 %749 мм2.9 м/с3 %
    11:00Небольшая облачность+22°C56 %749 мм3.5 м/с29 %
    14:00Небольшая облачность+22°C63 %749 мм3.4 м/с46 %
    17:00Практически безоблачно+23°C50 %748 мм4.5 м/с49 %
    20:00Ясно и безоблачно+21°C70 %748 мм3.7 м/с19 %
    23:00Ясно и безоблачно+16°C83 %748 мм4.2 м/с2 %
  • 22мая
    Среда
    +12°
    +25°
    Практически безоблачно
    ВремяПогодаТемператураВлажностьДавлениеВетер, м/сВероятность осадков
    02:00Ясно и безоблачно+13°C92 %747 мм3.8 м/с3 %
    05:00Ясно и безоблачно+13°C96 %747 мм4.1 м/с2 %
    08:00Практически безоблачно+19°C75 %747 мм5.9 м/с2 %
    11:00Ясно и безоблачно+23°C58 %747 мм6.4 м/с16 %
    14:00Практически безоблачно+25°C50 %746 мм6.0 м/с29 %
    17:00Небольшая облачность, возможен дождь с грозой+23°C69 %746 мм5.5 м/с53 %
    20:00Ясно и безоблачно+21°C71 %746 мм5.1 м/с29 %
    23:00Ясно и безоблачно+17°C80 %746 мм5.5 м/с5 %
  • 23мая
    Четверг
    +13°
    +23°
    Пасмурно, ливень
    ВремяПогодаТемператураВлажностьДавлениеВетер, м/сВероятность осадков
    02:00Ясно и безоблачно+14°C81 %746 мм4.3 м/с5 %
    05:00Ясно и безоблачно+13°C79 %747 мм4.9 м/с14 %
    08:00Облачно с прояснениями+19°C70 %748 мм6.0 м/с30 %
    11:00Облачно с прояснениями+22°C60 %748 мм7.1 м/с39 %
    14:00Пасмурно, ливень+22°C64 %748 мм6.2 м/с51 %
    17:00Облачно с прояснениями, небольшой дождь+20°C65 %748 мм5.4 м/с61 %
    20:00Практически безоблачно+21°C57 %749 мм5.0 м/с36 %
    23:00Небольшая облачность+17°C63 %750 мм5.2 м/с22 %
Мы используем cookies
Соглашаюсь